createdAt,value
2023-02-16T00:00:54.847Z,32.89
2023-02-16T00:01:56.043Z,32.87
2023-02-16T00:02:55.983Z,32.88
2023-02-16T00:03:55.189Z,32.88
2023-02-16T00:04:56.118Z,32.89
2023-02-16T00:05:55.347Z,32.91
2023-02-16T00:06:55.360Z,32.89
2023-02-16T00:07:56.361Z,32.87
2023-02-16T00:08:56.320Z,32.89
2023-02-16T00:09:56.275Z,32.90
2023-02-16T00:10:56.365Z,32.90
2023-02-16T00:11:55.310Z,32.90
2023-02-16T00:12:55.278Z,32.91
2023-02-16T00:13:55.333Z,32.89
2023-02-16T00:14:55.315Z,32.92
2023-02-16T00:15:56.417Z,32.89
2023-02-16T00:16:56.262Z,32.89
2023-02-16T00:17:56.357Z,32.90
2023-02-16T00:18:56.410Z,32.88
2023-02-16T00:19:55.280Z,32.90
2023-02-16T00:20:56.309Z,32.90
2023-02-16T00:21:56.292Z,32.90
2023-02-16T00:22:55.288Z,32.91
2023-02-16T00:23:56.218Z,32.91
2023-02-16T00:24:55.207Z,32.89
2023-02-16T00:25:56.201Z,32.88
2023-02-16T00:26:56.250Z,32.88
2023-02-16T00:27:56.288Z,32.90
2023-02-16T00:28:56.320Z,32.90
2023-02-16T00:29:55.364Z,32.91
2023-02-16T00:30:56.670Z,32.89
2023-02-16T00:31:55.593Z,32.93
2023-02-16T00:32:55.483Z,32.88
2023-02-16T00:33:55.547Z,32.91
2023-02-16T00:34:56.554Z,32.90
2023-02-16T00:35:55.593Z,32.89
2023-02-16T00:36:56.611Z,32.93
2023-02-16T00:37:56.657Z,32.90
2023-02-16T00:38:56.740Z,32.91
2023-02-16T00:39:56.759Z,32.91
2023-02-16T00:40:56.808Z,32.89
2023-02-16T00:41:56.862Z,32.90
2023-02-16T00:42:57.544Z,32.90
2023-02-16T00:43:55.942Z,32.89
2023-02-16T00:44:56.999Z,32.92
2023-02-16T00:45:56.064Z,32.90
2023-02-16T00:46:57.081Z,32.91
2023-02-16T00:47:57.074Z,32.91
2023-02-16T00:48:57.120Z,32.90
2023-02-16T00:49:56.176Z,32.90
2023-02-16T00:50:57.200Z,32.93
2023-02-16T00:51:57.267Z,32.89
2023-02-16T00:52:57.321Z,32.91
2023-02-16T00:53:57.363Z,32.90
2023-02-16T00:54:57.582Z,32.90
2023-02-16T00:55:57.617Z,32.90
2023-02-16T00:56:56.535Z,32.91
2023-02-16T00:57:56.508Z,32.91
2023-02-16T00:58:57.628Z,32.92
2023-02-16T00:59:56.455Z,32.92
2023-02-16T01:00:57.544Z,32.92
2023-02-16T01:01:57.628Z,32.91
2023-02-16T01:02:57.491Z,32.91
2023-02-16T01:03:57.481Z,32.93
2023-02-16T01:04:57.737Z,32.89
2023-02-16T01:05:57.432Z,32.90
2023-02-16T01:06:57.413Z,32.91
2023-02-16T01:07:56.399Z,32.91
2023-02-16T01:08:56.610Z,32.91
2023-02-16T01:09:57.499Z,32.93
2023-02-16T01:10:56.804Z,32.91
2023-02-16T01:11:57.389Z,32.91
2023-02-16T01:12:57.420Z,32.91
2023-02-16T01:13:56.776Z,32.92
2023-02-16T01:14:57.380Z,32.90
2023-02-16T01:15:57.468Z,32.94
2023-02-16T01:16:57.372Z,32.89
2023-02-16T01:17:56.371Z,32.91
2023-02-16T01:18:56.430Z,32.93
2023-02-16T01:19:57.412Z,32.92
2023-02-16T01:20:57.419Z,32.91
2023-02-16T01:21:57.445Z,32.91
2023-02-16T01:22:57.454Z,32.93
2023-02-16T01:23:57.500Z,32.90
2023-02-16T01:24:57.513Z,32.93
2023-02-16T01:25:57.535Z,32.92
2023-02-16T01:26:56.556Z,32.92
2023-02-16T01:27:57.573Z,32.93
2023-02-16T01:28:56.619Z,32.92
2023-02-16T01:29:56.660Z,32.94
2023-02-16T01:30:57.761Z,32.93
2023-02-16T01:31:57.808Z,32.93
2023-02-16T01:32:56.756Z,32.91
2023-02-16T01:33:57.789Z,32.93
2023-02-16T01:34:56.845Z,32.92
2023-02-16T01:35:56.913Z,32.94
2023-02-16T01:36:57.894Z,32.94
2023-02-16T01:37:57.926Z,32.92
2023-02-16T01:38:57.962Z,32.92
2023-02-16T01:39:57.998Z,32.91
2023-02-16T01:40:57.058Z,32.93
2023-02-16T01:41:58.081Z,32.91
2023-02-16T01:42:58.071Z,32.92
2023-02-16T01:43:57.083Z,32.94
2023-02-16T01:44:58.112Z,32.92
2023-02-16T01:45:57.113Z,32.93
2023-02-16T01:46:58.130Z,32.91
2023-02-16T01:47:57.159Z,32.92
2023-02-16T01:48:58.167Z,32.92
2023-02-16T01:49:57.176Z,32.93
2023-02-16T01:50:57.210Z,32.94
2023-02-16T01:51:57.172Z,32.94
2023-02-16T01:52:58.179Z,32.92
2023-02-16T01:53:58.154Z,32.92
2023-02-16T01:54:58.159Z,32.92
2023-02-16T01:55:58.150Z,32.93
2023-02-16T01:56:58.139Z,32.96
2023-02-16T01:57:58.146Z,32.93
2023-02-16T01:58:58.153Z,32.94
2023-02-16T01:59:57.175Z,32.94
2023-02-16T02:00:58.185Z,32.92
2023-02-16T02:01:58.329Z,32.91
2023-02-16T02:02:58.279Z,32.92
2023-02-16T02:03:58.249Z,32.93
2023-02-16T02:04:58.271Z,32.92
2023-02-16T02:05:58.306Z,32.91
2023-02-16T02:06:58.347Z,32.92
2023-02-16T02:07:58.377Z,32.94
2023-02-16T02:08:58.374Z,32.92
2023-02-16T02:09:57.393Z,32.93
2023-02-16T02:10:58.383Z,32.93
2023-02-16T02:11:57.381Z,32.94
2023-02-16T02:12:57.451Z,32.94
2023-02-16T02:13:58.401Z,32.93
2023-02-16T02:14:58.476Z,32.94
2023-02-16T02:15:57.609Z,32.93
2023-02-16T02:16:58.451Z,32.94
2023-02-16T02:17:58.720Z,32.92
2023-02-16T02:18:58.706Z,32.94
2023-02-16T02:19:58.443Z,32.93
2023-02-16T02:20:57.513Z,32.94
2023-02-16T02:21:58.430Z,32.91
2023-02-16T02:22:58.571Z,32.91
2023-02-16T02:23:58.533Z,32.92
2023-02-16T02:24:58.627Z,32.92
2023-02-16T02:25:57.563Z,32.93
2023-02-16T02:26:58.534Z,32.93
2023-02-16T02:27:57.625Z,32.92
2023-02-16T02:28:58.540Z,32.91
2023-02-16T02:29:58.805Z,32.93
2023-02-16T02:30:58.548Z,32.90
2023-02-16T02:31:57.733Z,32.93
2023-02-16T02:32:58.610Z,32.94
2023-02-16T02:33:57.973Z,32.92
2023-02-16T02:34:58.454Z,32.91
2023-02-16T02:35:58.437Z,32.93
2023-02-16T02:36:58.438Z,32.93
2023-02-16T02:37:58.443Z,32.93
2023-02-16T02:38:58.453Z,32.94
2023-02-16T02:39:58.416Z,32.94
2023-02-16T02:40:57.436Z,32.92
2023-02-16T02:41:57.449Z,32.92
2023-02-16T02:42:58.426Z,32.91
2023-02-16T02:43:57.467Z,32.93
2023-02-16T02:44:58.431Z,32.93
2023-02-16T02:45:58.437Z,32.92
2023-02-16T02:46:58.444Z,32.91
2023-02-16T02:47:57.443Z,32.93
2023-02-16T02:48:58.435Z,32.93
2023-02-16T02:49:58.416Z,32.93
2023-02-16T02:50:58.437Z,32.93
2023-02-16T02:51:58.437Z,32.91
2023-02-16T02:52:57.418Z,32.90
2023-02-16T02:53:58.417Z,32.91
2023-02-16T02:54:58.533Z,32.93
2023-02-16T02:55:57.426Z,32.92
2023-02-16T02:56:58.435Z,32.92
2023-02-16T02:57:58.439Z,32.92
2023-02-16T02:58:58.438Z,32.92
2023-02-16T02:59:58.445Z,32.93
2023-02-16T03:00:58.496Z,32.94
2023-02-16T03:01:58.469Z,32.93
2023-02-16T03:02:58.432Z,32.93
2023-02-16T03:03:58.422Z,32.90
2023-02-16T03:04:57.407Z,32.91
2023-02-16T03:05:58.482Z,32.93
2023-02-16T03:06:57.396Z,32.93
2023-02-16T03:07:58.411Z,32.92
2023-02-16T03:08:58.392Z,32.93
2023-02-16T03:09:58.415Z,32.91
2023-02-16T03:10:57.429Z,32.91
2023-02-16T03:11:58.398Z,32.90
2023-02-16T03:12:58.378Z,32.95
2023-02-16T03:13:58.377Z,32.93
2023-02-16T03:14:57.382Z,32.94
2023-02-16T03:15:57.433Z,32.93
2023-02-16T03:16:58.382Z,32.93
2023-02-16T03:17:58.378Z,32.93
2023-02-16T03:18:58.369Z,32.93
2023-02-16T03:19:57.354Z,32.93
2023-02-16T03:20:57.353Z,32.92
2023-02-16T03:21:58.346Z,32.93
2023-02-16T03:22:58.342Z,32.92
2023-02-16T03:23:57.346Z,32.92
2023-02-16T03:24:58.347Z,32.91
2023-02-16T03:25:57.338Z,32.93
2023-02-16T03:26:58.560Z,32.94
2023-02-16T03:27:58.330Z,32.91
2023-02-16T03:28:58.338Z,32.93
2023-02-16T03:29:58.376Z,32.93
2023-02-16T03:30:58.355Z,32.91
2023-02-16T03:31:57.405Z,32.90
2023-02-16T03:32:58.331Z,32.91
2023-02-16T03:33:58.314Z,32.90
2023-02-16T03:34:58.344Z,32.91
2023-02-16T03:35:57.296Z,32.90
2023-02-16T03:36:57.297Z,32.91
2023-02-16T03:37:58.316Z,32.89
2023-02-16T03:38:58.318Z,32.94
2023-02-16T03:39:58.350Z,32.90
2023-02-16T03:40:58.383Z,32.91
2023-02-16T03:41:57.301Z,32.94
2023-02-16T03:42:58.317Z,32.92
2023-02-16T03:43:58.308Z,32.92
2023-02-16T03:44:57.290Z,32.92
2023-02-16T03:45:58.335Z,32.92
2023-02-16T03:46:57.306Z,32.91
2023-02-16T03:47:58.309Z,32.93
2023-02-16T03:48:58.299Z,32.92
2023-02-16T03:49:58.314Z,32.91
2023-02-16T03:50:58.303Z,32.90
2023-02-16T03:51:58.292Z,32.92
2023-02-16T03:52:58.306Z,32.92
2023-02-16T03:53:58.297Z,32.91
2023-02-16T03:54:58.292Z,32.94
2023-02-16T03:55:58.307Z,32.90
2023-02-16T03:56:58.341Z,32.91
2023-02-16T03:57:58.298Z,32.93
2023-02-16T03:58:58.321Z,32.92
2023-02-16T03:59:59.348Z,32.92
2023-02-16T04:00:57.310Z,32.93
2023-02-16T04:01:57.321Z,32.93
2023-02-16T04:02:58.310Z,32.93
2023-02-16T04:03:57.413Z,32.94
2023-02-16T04:04:58.296Z,32.90
2023-02-16T04:05:58.303Z,32.90
2023-02-16T04:06:58.284Z,32.93
2023-02-16T04:07:58.281Z,32.93
2023-02-16T04:08:58.291Z,32.91
2023-02-16T04:09:58.272Z,32.93
2023-02-16T04:10:58.275Z,32.93
2023-02-16T04:11:58.264Z,32.90
2023-02-16T04:12:57.266Z,32.94
2023-02-16T04:13:57.259Z,32.93
2023-02-16T04:14:58.290Z,32.93
2023-02-16T04:15:57.279Z,32.93
2023-02-16T04:16:58.282Z,32.93
2023-02-16T04:17:58.270Z,32.93
2023-02-16T04:18:58.271Z,32.93
2023-02-16T04:19:58.279Z,32.94
2023-02-16T04:20:58.273Z,32.93
2023-02-16T04:21:58.289Z,32.93
2023-02-16T04:22:57.288Z,32.91
2023-02-16T04:23:58.280Z,32.93
2023-02-16T04:24:57.288Z,32.94
2023-02-16T04:25:58.284Z,32.91
2023-02-16T04:26:58.332Z,32.94
2023-02-16T04:27:57.299Z,32.92
2023-02-16T04:28:58.510Z,32.91
2023-02-16T04:29:57.355Z,32.91
2023-02-16T04:30:58.474Z,32.92
2023-02-16T04:31:58.922Z,32.92
2023-02-16T04:32:57.402Z,32.90
2023-02-16T04:33:58.366Z,32.91
2023-02-16T04:34:58.503Z,32.93
2023-02-16T04:35:58.504Z,32.94
2023-02-16T04:36:58.411Z,32.93
2023-02-16T04:37:58.460Z,32.92
2023-02-16T04:38:57.452Z,32.91
2023-02-16T04:39:58.406Z,32.91
2023-02-16T04:40:58.435Z,32.91
2023-02-16T04:41:58.610Z,32.93
2023-02-16T04:42:58.721Z,32.91
2023-02-16T04:43:58.422Z,32.93
2023-02-16T04:44:58.399Z,32.91
2023-02-16T04:45:58.466Z,32.92
2023-02-16T04:46:58.442Z,32.91
2023-02-16T04:47:58.404Z,32.92
2023-02-16T04:48:57.396Z,32.92
2023-02-16T04:49:57.398Z,32.92
2023-02-16T04:50:58.379Z,32.91
2023-02-16T04:51:58.401Z,32.90
2023-02-16T04:52:58.378Z,32.92
2023-02-16T04:53:58.390Z,32.91
2023-02-16T04:54:58.360Z,32.92
2023-02-16T04:55:57.375Z,32.92
2023-02-16T04:56:57.355Z,32.90
2023-02-16T04:57:57.362Z,32.92
2023-02-16T04:58:58.352Z,32.91
2023-02-16T04:59:58.362Z,32.92
2023-02-16T05:00:57.342Z,32.90
2023-02-16T05:01:58.482Z,32.92
2023-02-16T05:02:58.417Z,32.93
2023-02-16T05:03:58.430Z,32.89
2023-02-16T05:04:58.402Z,32.92
2023-02-16T05:05:58.473Z,32.92
2023-02-16T05:06:58.385Z,32.92
2023-02-16T05:07:58.400Z,32.93
2023-02-16T05:08:57.389Z,32.90
2023-02-16T05:09:58.465Z,32.91
2023-02-16T05:10:58.619Z,32.91
2023-02-16T05:11:57.473Z,32.90
2023-02-16T05:12:58.512Z,32.91
2023-02-16T05:13:58.500Z,32.91
2023-02-16T05:14:58.633Z,32.91
2023-02-16T05:15:58.590Z,32.92
2023-02-16T05:16:58.534Z,32.91
2023-02-16T05:17:59.364Z,32.92
2023-02-16T05:18:58.983Z,32.89
2023-02-16T05:19:58.603Z,32.90
2023-02-16T05:20:58.686Z,32.92
2023-02-16T05:21:58.566Z,32.90
2023-02-16T05:22:58.567Z,32.91
2023-02-16T05:23:58.573Z,32.92
2023-02-16T05:24:58.612Z,32.89
2023-02-16T05:25:58.634Z,32.91
2023-02-16T05:26:57.604Z,32.91
2023-02-16T05:27:57.665Z,32.91
2023-02-16T05:28:58.609Z,32.89
2023-02-16T05:29:58.724Z,32.90
2023-02-16T05:30:57.695Z,32.90
2023-02-16T05:31:57.764Z,32.90
2023-02-16T05:32:58.637Z,32.92
2023-02-16T05:33:58.644Z,32.90
2023-02-16T05:34:58.673Z,32.92
2023-02-16T05:35:58.658Z,32.91
2023-02-16T05:36:58.677Z,32.92
2023-02-16T05:37:57.670Z,32.89
2023-02-16T05:38:58.667Z,32.91
2023-02-16T05:39:58.704Z,32.91
2023-02-16T05:40:58.696Z,32.90
2023-02-16T05:41:58.697Z,32.89
2023-02-16T05:42:57.698Z,32.89
2023-02-16T05:43:57.688Z,32.90
2023-02-16T05:44:57.714Z,32.91
2023-02-16T05:45:58.705Z,32.90
2023-02-16T05:46:58.740Z,32.89
2023-02-16T05:47:57.725Z,32.91
2023-02-16T05:48:58.708Z,32.91
2023-02-16T05:49:58.726Z,32.90
2023-02-16T05:50:57.764Z,32.91
2023-02-16T05:51:57.797Z,32.90
2023-02-16T05:52:58.966Z,32.91
2023-02-16T05:53:58.970Z,32.91
2023-02-16T05:54:57.895Z,32.93
2023-02-16T05:55:58.821Z,32.89
2023-02-16T05:56:58.816Z,32.92
2023-02-16T05:57:58.928Z,32.89
2023-02-16T05:58:58.824Z,32.91
2023-02-16T05:59:57.985Z,32.93
2023-02-16T06:00:58.998Z,32.91
2023-02-16T06:01:59.017Z,32.91
2023-02-16T06:02:59.166Z,32.91
2023-02-16T06:03:59.020Z,32.92
2023-02-16T06:04:58.936Z,32.91
2023-02-16T06:05:58.222Z,32.90
2023-02-16T06:06:59.189Z,32.92
2023-02-16T06:07:59.092Z,32.92
2023-02-16T06:08:59.091Z,32.92
2023-02-16T06:09:58.176Z,32.90
2023-02-16T06:10:59.095Z,32.92
2023-02-16T06:11:59.044Z,32.90
2023-02-16T06:12:59.072Z,32.89
2023-02-16T06:13:59.073Z,32.90
2023-02-16T06:14:58.076Z,32.92
2023-02-16T06:15:59.099Z,32.90
2023-02-16T06:16:59.082Z,32.92
2023-02-16T06:17:59.112Z,32.91
2023-02-16T06:18:58.119Z,32.92
2023-02-16T06:19:59.127Z,32.91
2023-02-16T06:20:58.125Z,32.90
2023-02-16T06:21:58.131Z,32.92
2023-02-16T06:22:59.172Z,32.93
2023-02-16T06:23:59.148Z,32.92
2023-02-16T06:24:58.164Z,32.90
2023-02-16T06:25:59.189Z,32.90
2023-02-16T06:26:59.133Z,32.90
2023-02-16T06:27:59.239Z,32.92
2023-02-16T06:28:59.212Z,32.90
2023-02-16T06:29:59.263Z,32.90
2023-02-16T06:30:58.264Z,32.91
2023-02-16T06:31:59.447Z,32.89
2023-02-16T06:32:58.257Z,32.91
2023-02-16T06:33:59.281Z,32.92
2023-02-16T06:34:58.270Z,32.92
2023-02-16T06:35:59.281Z,32.90
2023-02-16T06:36:59.275Z,32.91
2023-02-16T06:37:58.281Z,32.90
2023-02-16T06:38:59.331Z,32.89
2023-02-16T06:39:59.318Z,32.89
2023-02-16T06:40:58.315Z,32.89
2023-02-16T06:41:59.320Z,32.89
2023-02-16T06:42:59.325Z,32.91
2023-02-16T06:43:59.348Z,32.90
2023-02-16T06:44:59.339Z,32.90
2023-02-16T06:45:59.341Z,32.92
2023-02-16T06:46:59.423Z,32.90
2023-02-16T06:47:59.372Z,32.91
2023-02-16T06:48:59.414Z,32.91
2023-02-16T06:49:58.394Z,32.90
2023-02-16T06:50:58.399Z,32.91
2023-02-16T06:51:59.417Z,32.88
2023-02-16T06:52:58.528Z,32.91
2023-02-16T06:53:59.452Z,32.91
2023-02-16T06:54:59.552Z,32.89
2023-02-16T06:55:59.480Z,32.92
2023-02-16T06:56:59.492Z,32.88
2023-02-16T06:57:58.505Z,32.90
2023-02-16T06:58:59.517Z,32.89
2023-02-16T06:59:59.549Z,32.90
2023-02-16T07:00:59.660Z,32.91
2023-02-16T07:01:59.577Z,32.91
2023-02-16T07:02:59.645Z,32.89
2023-02-16T07:03:58.608Z,32.90
2023-02-16T07:04:59.619Z,32.89
2023-02-16T07:05:59.619Z,32.90
2023-02-16T07:06:59.644Z,32.89
2023-02-16T07:07:58.656Z,32.90
2023-02-16T07:08:59.694Z,32.89
2023-02-16T07:09:59.690Z,32.89
2023-02-16T07:10:59.755Z,32.89
2023-02-16T07:11:58.899Z,32.91
2023-02-16T07:12:59.825Z,32.89
2023-02-16T07:13:59.825Z,32.88
2023-02-16T07:15:00.107Z,32.88
2023-02-16T07:15:59.906Z,32.91
2023-02-16T07:17:00.234Z,32.92
2023-02-16T07:17:58.934Z,32.91
2023-02-16T07:19:00.041Z,32.90
2023-02-16T07:20:00.230Z,32.89
2023-02-16T07:20:58.994Z,32.89
2023-02-16T07:22:00.041Z,32.88
2023-02-16T07:23:00.027Z,32.90
2023-02-16T07:24:00.176Z,32.87
2023-02-16T07:24:59.158Z,32.88
2023-02-16T07:26:00.129Z,32.88
2023-02-16T07:26:59.327Z,32.87
2023-02-16T07:28:00.161Z,32.86
2023-02-16T07:29:00.207Z,32.86
2023-02-16T07:30:00.423Z,32.85
2023-02-16T07:31:00.241Z,32.87
2023-02-16T07:32:00.396Z,32.87
2023-02-16T07:32:59.269Z,32.85
2023-02-16T07:34:00.300Z,32.83
2023-02-16T07:35:00.301Z,32.86
2023-02-16T07:36:00.329Z,32.84
2023-02-16T07:37:00.335Z,32.86
2023-02-16T07:38:00.371Z,32.86
2023-02-16T07:38:59.380Z,32.86
2023-02-16T07:40:00.452Z,32.84
2023-02-16T07:41:00.400Z,32.85
2023-02-16T07:41:59.430Z,32.86
2023-02-16T07:42:59.487Z,32.82
2023-02-16T07:44:00.482Z,32.86
2023-02-16T07:45:00.541Z,32.83
2023-02-16T07:45:59.528Z,32.81
2023-02-16T07:46:59.533Z,32.81
2023-02-16T07:48:00.555Z,32.81
2023-02-16T07:48:59.562Z,32.81
2023-02-16T07:50:00.600Z,32.80
2023-02-16T07:51:00.614Z,32.80
2023-02-16T07:52:00.645Z,32.82
2023-02-16T07:52:59.660Z,32.81
2023-02-16T07:54:00.683Z,32.79
2023-02-16T07:54:59.673Z,32.80
2023-02-16T07:55:59.698Z,32.81
2023-02-16T07:56:59.739Z,32.81
2023-02-16T07:58:00.743Z,32.82
2023-02-16T07:59:00.868Z,32.80
2023-02-16T08:00:00.793Z,32.80
2023-02-16T08:01:00.795Z,32.81
2023-02-16T08:02:00.909Z,32.78
2023-02-16T08:03:01.143Z,32.78
2023-02-16T08:04:00.850Z,32.79
2023-02-16T08:04:59.845Z,32.77
2023-02-16T08:06:00.857Z,32.77
2023-02-16T08:07:00.862Z,32.78
2023-02-16T08:07:59.854Z,32.78
2023-02-16T08:09:00.896Z,32.79
2023-02-16T08:09:59.882Z,32.76
2023-02-16T08:10:59.884Z,32.74
2023-02-16T08:11:59.892Z,32.76
2023-02-16T08:13:00.906Z,32.76
2023-02-16T08:13:59.911Z,32.75
2023-02-16T08:15:01.042Z,32.72
2023-02-16T08:16:00.956Z,32.72
2023-02-16T08:17:01.026Z,32.74
2023-02-16T08:18:00.947Z,32.73
2023-02-16T08:19:00.943Z,32.75
2023-02-16T08:19:59.956Z,32.72
2023-02-16T08:21:04.532Z,32.69
2023-02-16T08:22:00.952Z,32.71
2023-02-16T08:22:59.940Z,32.68
2023-02-16T08:23:59.928Z,32.71
2023-02-16T08:25:00.949Z,32.70
2023-02-16T08:26:00.920Z,32.71
2023-02-16T08:27:00.907Z,32.70
2023-02-16T08:28:00.915Z,32.69
2023-02-16T08:29:00.884Z,32.67
2023-02-16T08:30:01.016Z,32.68
2023-02-16T08:31:01.076Z,32.67
2023-02-16T08:32:00.910Z,32.70
2023-02-16T08:32:59.876Z,32.66
2023-02-16T08:34:00.872Z,32.69
2023-02-16T08:35:00.871Z,32.66
2023-02-16T08:36:00.848Z,32.67
2023-02-16T08:37:00.860Z,32.64
2023-02-16T08:37:59.837Z,32.66
2023-02-16T08:39:00.821Z,32.64
2023-02-16T08:40:00.972Z,32.64
2023-02-16T08:41:00.806Z,32.65
2023-02-16T08:42:00.799Z,32.63
2023-02-16T08:43:00.841Z,32.63
2023-02-16T08:44:00.792Z,32.61
2023-02-16T08:45:00.794Z,32.61
2023-02-16T08:46:00.908Z,32.63
2023-02-16T08:47:00.823Z,32.62
2023-02-16T08:48:00.798Z,32.63
2023-02-16T08:48:59.787Z,32.64
2023-02-16T08:50:00.770Z,32.59
2023-02-16T08:51:00.754Z,32.63
2023-02-16T08:52:00.740Z,32.61
2023-02-16T08:53:00.724Z,32.59
2023-02-16T08:54:00.722Z,32.60
2023-02-16T08:55:00.737Z,32.60
2023-02-16T08:55:59.696Z,32.61
2023-02-16T08:57:00.694Z,32.61
2023-02-16T08:57:59.684Z,32.61
2023-02-16T08:59:00.723Z,32.62
2023-02-16T09:00:00.695Z,32.62
2023-02-16T09:01:00.679Z,32.60
2023-02-16T09:02:00.763Z,32.60
2023-02-16T09:03:00.678Z,32.61
2023-02-16T09:04:00.638Z,32.59
2023-02-16T09:05:00.644Z,32.59
2023-02-16T09:05:59.627Z,32.61
2023-02-16T09:07:00.631Z,32.59
2023-02-16T09:08:00.598Z,32.58
2023-02-16T09:09:00.592Z,32.61
2023-02-16T09:10:00.587Z,32.61
2023-02-16T09:11:00.581Z,32.62
2023-02-16T09:12:00.578Z,32.60
2023-02-16T09:13:00.575Z,32.64
2023-02-16T09:13:59.568Z,32.64
2023-02-16T09:15:00.575Z,32.63
2023-02-16T09:15:59.545Z,32.62
2023-02-16T09:17:00.619Z,32.61
2023-02-16T09:18:00.542Z,32.60
2023-02-16T09:18:59.551Z,32.62
2023-02-16T09:20:00.573Z,32.63
2023-02-16T09:21:00.518Z,32.63
2023-02-16T09:22:00.503Z,32.62
2023-02-16T09:23:00.520Z,32.62
2023-02-16T09:24:00.489Z,32.60
2023-02-16T09:25:00.546Z,32.61
2023-02-16T09:26:00.541Z,32.61
2023-02-16T09:26:59.586Z,32.59
2023-02-16T09:28:00.621Z,32.60
2023-02-16T09:29:00.688Z,32.60
2023-02-16T09:30:00.845Z,32.57
2023-02-16T09:31:00.921Z,32.60
2023-02-16T09:32:00.826Z,32.54
2023-02-16T09:33:00.892Z,32.53
2023-02-16T09:33:59.879Z,32.54
2023-02-16T09:35:00.967Z,32.56
2023-02-16T09:36:00.938Z,32.54
2023-02-16T09:36:59.977Z,32.53
2023-02-16T09:38:01.035Z,32.54
2023-02-16T09:39:00.116Z,32.54
2023-02-16T09:40:01.145Z,32.54
2023-02-16T09:41:00.176Z,32.52
2023-02-16T09:42:01.232Z,32.52
2023-02-16T09:43:01.281Z,32.50
2023-02-16T09:44:01.337Z,32.51
2023-02-16T09:45:01.393Z,32.51
2023-02-16T09:46:01.456Z,32.52
2023-02-16T09:47:01.844Z,32.52
2023-02-16T09:48:00.562Z,32.50
2023-02-16T09:49:00.625Z,32.49
2023-02-16T09:50:01.761Z,32.49
2023-02-16T09:51:01.787Z,32.49
2023-02-16T09:52:00.878Z,32.48
2023-02-16T09:53:01.872Z,32.49
2023-02-16T09:54:00.939Z,32.48
2023-02-16T09:55:01.012Z,32.47
2023-02-16T09:56:02.481Z,32.47
2023-02-16T09:57:02.138Z,32.47
2023-02-16T09:58:02.194Z,32.46
2023-02-16T09:59:02.241Z,32.45
2023-02-16T10:00:02.329Z,32.46
2023-02-16T10:01:02.442Z,32.45
2023-02-16T10:02:02.431Z,32.43
2023-02-16T10:03:01.486Z,32.42
2023-02-16T10:04:02.541Z,32.41
2023-02-16T10:05:01.598Z,32.41
2023-02-16T10:06:02.978Z,32.41
2023-02-16T10:07:01.743Z,32.40
2023-02-16T10:08:02.790Z,32.39
2023-02-16T10:09:01.832Z,32.39
2023-02-16T10:10:01.900Z,32.37
2023-02-16T10:11:03.291Z,32.40
2023-02-16T10:12:03.017Z,32.39
2023-02-16T10:13:03.062Z,32.36
2023-02-16T10:14:02.108Z,32.37
2023-02-16T10:15:03.216Z,32.38
2023-02-16T10:16:03.273Z,32.35
2023-02-16T10:17:02.294Z,32.36
2023-02-16T10:18:02.353Z,32.34
2023-02-16T10:19:04.522Z,32.36
2023-02-16T10:20:02.485Z,32.33
2023-02-16T10:21:03.981Z,32.31
2023-02-16T10:22:03.618Z,32.29
2023-02-16T10:23:02.642Z,32.30
2023-02-16T10:24:03.712Z,32.28
2023-02-16T10:25:03.750Z,32.28
2023-02-16T10:26:03.800Z,32.30
2023-02-16T10:27:02.862Z,32.30
2023-02-16T10:28:03.922Z,32.26
2023-02-16T10:29:03.981Z,32.28
2023-02-16T10:30:04.152Z,32.26
2023-02-16T10:31:04.641Z,32.28
2023-02-16T10:32:04.299Z,32.24
2023-02-16T10:33:04.190Z,32.21
2023-02-16T10:34:04.231Z,32.17
2023-02-16T10:35:04.254Z,32.05
2023-02-16T10:36:04.307Z,31.88
2023-02-16T10:37:04.302Z,31.65
2023-02-16T10:38:04.419Z,31.54
2023-02-16T10:39:04.300Z,31.44
2023-02-16T10:40:04.314Z,31.42
2023-02-16T10:41:04.630Z,31.19
2023-02-16T10:42:03.316Z,31.15
2023-02-16T10:43:04.305Z,30.96
2023-02-16T10:44:04.364Z,30.86
2023-02-16T10:45:04.293Z,30.72
2023-02-16T10:46:04.361Z,30.67
2023-02-16T10:47:03.296Z,30.58
2023-02-16T10:48:04.306Z,30.53
2023-02-16T10:49:04.350Z,30.50
2023-02-16T10:50:03.332Z,30.42
2023-02-16T10:51:04.786Z,30.34
2023-02-16T10:52:04.448Z,30.29
2023-02-16T10:53:04.531Z,30.17
2023-02-16T10:54:03.642Z,30.21
2023-02-16T10:55:05.085Z,30.10
2023-02-16T10:56:04.690Z,29.98
2023-02-16T10:57:04.814Z,29.92
2023-02-16T10:58:05.042Z,29.89
2023-02-16T10:59:05.310Z,29.80
2023-02-16T11:00:04.837Z,29.72
2023-02-16T11:01:05.190Z,29.68
2023-02-16T11:02:03.906Z,29.63
2023-02-16T11:03:03.945Z,29.59
2023-02-16T11:04:05.010Z,29.51
2023-02-16T11:05:05.011Z,29.50
2023-02-16T11:06:05.493Z,29.42
2023-02-16T11:07:04.080Z,29.37
2023-02-16T11:08:05.102Z,29.31
2023-02-16T11:09:04.146Z,29.31
2023-02-16T11:10:04.215Z,29.25
2023-02-16T11:11:05.569Z,29.22
2023-02-16T11:12:04.210Z,29.18
2023-02-16T11:13:04.225Z,29.15
2023-02-16T11:14:06.860Z,29.13
2023-02-16T11:15:05.212Z,29.14
2023-02-16T11:16:05.266Z,29.03
2023-02-16T11:17:05.189Z,29.05
2023-02-16T11:18:05.193Z,29.09
2023-02-16T11:19:05.229Z,29.01
2023-02-16T11:20:05.167Z,28.97
2023-02-16T11:21:05.455Z,28.95
2023-02-16T11:22:05.163Z,28.95
2023-02-16T11:23:05.168Z,28.90
2023-02-16T11:24:05.148Z,28.84
2023-02-16T11:25:05.138Z,28.87
2023-02-16T11:26:05.175Z,28.85
2023-02-16T11:27:05.140Z,28.85
2023-02-16T11:28:04.116Z,28.82
2023-02-16T11:29:04.109Z,28.79
2023-02-16T11:30:05.146Z,28.78
2023-02-16T11:31:04.649Z,28.78
2023-02-16T11:32:05.152Z,28.76
2023-02-16T11:33:04.094Z,28.76
2023-02-16T11:34:05.991Z,28.71
2023-02-16T11:35:05.072Z,28.76
2023-02-16T11:36:05.089Z,28.68
2023-02-16T11:37:05.065Z,28.71
2023-02-16T11:38:05.051Z,28.71
2023-02-16T11:39:05.030Z,28.68
2023-02-16T11:40:05.049Z,28.72
2023-02-16T11:41:04.398Z,28.67
2023-02-16T11:42:04.068Z,28.68
2023-02-16T11:43:05.041Z,28.65
2023-02-16T11:44:05.062Z,28.62
2023-02-16T11:45:05.048Z,28.63
2023-02-16T11:46:05.385Z,28.63
2023-02-16T11:47:05.039Z,28.60
2023-02-16T11:48:05.062Z,28.60
2023-02-16T11:49:04.045Z,28.60
2023-02-16T11:50:05.058Z,28.50
2023-02-16T11:51:05.370Z,28.53
2023-02-16T11:52:04.197Z,28.55
2023-02-16T11:53:05.226Z,28.59
2023-02-16T11:54:05.266Z,28.53
2023-02-16T11:55:05.303Z,28.51
2023-02-16T11:56:04.733Z,28.52
2023-02-16T11:57:04.516Z,28.57
2023-02-16T11:58:04.500Z,28.52
2023-02-16T11:59:05.536Z,28.49
2023-02-16T12:00:05.617Z,28.49
2023-02-16T12:01:05.069Z,28.45
2023-02-16T12:02:05.745Z,28.47
2023-02-16T12:03:05.789Z,28.46
2023-02-16T12:04:05.880Z,28.39
2023-02-16T12:05:05.938Z,28.39
2023-02-16T12:06:05.962Z,28.44
2023-02-16T12:07:06.046Z,28.37
2023-02-16T12:08:06.092Z,28.38
2023-02-16T12:09:06.160Z,28.34
2023-02-16T12:10:06.205Z,28.38
2023-02-16T12:11:05.617Z,28.34
2023-02-16T12:12:06.345Z,28.40
2023-02-16T12:13:06.384Z,28.35
2023-02-16T12:14:05.467Z,28.37
2023-02-16T12:15:06.482Z,28.34
2023-02-16T12:16:08.740Z,28.37
2023-02-16T12:17:05.521Z,28.35
2023-02-16T12:18:05.513Z,28.36
2023-02-16T12:19:05.517Z,28.37
2023-02-16T12:20:06.530Z,28.35
2023-02-16T12:21:06.495Z,28.39
2023-02-16T12:22:06.501Z,28.37
2023-02-16T12:23:05.492Z,28.34
2023-02-16T12:24:06.469Z,28.34
2023-02-16T12:25:06.462Z,28.37
2023-02-16T12:26:06.857Z,28.36
2023-02-16T12:27:05.501Z,28.38
2023-02-16T12:28:06.492Z,28.41
2023-02-16T12:29:06.447Z,28.39
2023-02-16T12:30:06.510Z,28.44
2023-02-16T12:31:06.469Z,28.45
2023-02-16T12:32:06.466Z,28.42
2023-02-16T12:33:06.406Z,28.48
2023-02-16T12:34:06.406Z,28.48
2023-02-16T12:35:06.408Z,28.54
2023-02-16T12:36:06.726Z,28.56
2023-02-16T12:37:06.413Z,28.60
2023-02-16T12:38:06.398Z,28.65
2023-02-16T12:39:06.378Z,28.64
2023-02-16T12:40:06.368Z,28.66
2023-02-16T12:41:05.354Z,28.68
2023-02-16T12:42:06.339Z,28.67
2023-02-16T12:43:06.346Z,28.69
2023-02-16T12:44:06.330Z,28.70
2023-02-16T12:45:05.311Z,28.70
2023-02-16T12:46:06.751Z,28.69
2023-02-16T12:47:06.305Z,28.70
2023-02-16T12:48:06.294Z,28.75
2023-02-16T12:49:06.318Z,28.76
2023-02-16T12:50:06.273Z,28.76
2023-02-16T12:51:05.510Z,28.78
2023-02-16T12:52:06.306Z,28.76
2023-02-16T12:53:06.341Z,28.77